OYDAW ESGG-EKCH
Flight info
| Callsign | OYDAW |
|---|---|
| Flight time | 0h 30m |
| Altitude | 21000 |
| Route | TOPLA L996 ERNOV |
| Aircraft | LJ35/M-SFGJRW/S |
Departure
| Time | 2026-04-22 20:56 |
|---|---|
| Airport | Göteborg Landvetter Airport (ESGG) |
Arrival
| Time | 2026-04-22 21:26 |
|---|---|
| Airport | Copenhagen Kastrup Airport (EKCH) |
| Time | Latitude | Longitude | Altitude | Speed | Heading |
|---|---|---|---|---|---|
| 2026-04-22 20:22 | 57.67005 | 12.29536 | 510 ft | 0 kts | 116° |
| 2026-04-22 20:29 | 57.67006 | 12.29535 | 510 ft | 1 kts | 117° |
| 2026-04-22 20:30 | 57.67009 | 12.29519 | 510 ft | 5 kts | 99° |
| 2026-04-22 20:30 | 57.67000 | 12.29451 | 510 ft | 1 kts | 352° |
| 2026-04-22 20:30 | 57.66981 | 12.29456 | 510 ft | 15 kts | 211° |
| 2026-04-22 20:30 | 57.66937 | 12.29482 | 510 ft | 6 kts | 59° |
| 2026-04-22 20:31 | 57.66939 | 12.29487 | 510 ft | 0 kts | 49° |
| 2026-04-22 20:31 | 57.66939 | 12.29488 | 510 ft | 0 kts | 49° |
| 2026-04-22 20:31 | 57.66940 | 12.29489 | 510 ft | 0 kts | 50° |
| 2026-04-22 20:41 | 57.66941 | 12.29492 | 510 ft | 2 kts | 42° |
| 2026-04-22 20:42 | 57.66961 | 12.29465 | 510 ft | 0 kts | 297° |
| 2026-04-22 20:42 | 57.66963 | 12.29459 | 510 ft | 2 kts | 307° |
| 2026-04-22 20:42 | 57.66984 | 12.29454 | 510 ft | 4 kts | 46° |
| 2026-04-22 20:42 | 57.66982 | 12.29487 | 510 ft | 3 kts | 143° |
| 2026-04-22 20:43 | 57.66964 | 12.29477 | 510 ft | 4 kts | 239° |
| 2026-04-22 20:43 | 57.66957 | 12.29460 | 510 ft | 1 kts | 225° |
| 2026-04-22 20:43 | 57.66950 | 12.29448 | 510 ft | 1 kts | 223° |
| 2026-04-22 20:43 | 57.66943 | 12.29429 | 510 ft | 2 kts | 259° |
| 2026-04-22 20:44 | 57.66946 | 12.29411 | 510 ft | 0 kts | 298° |
| 2026-04-22 20:45 | 57.66952 | 12.29396 | 510 ft | 7 kts | 316° |
| 2026-04-22 20:45 | 57.66972 | 12.29396 | 510 ft | 3 kts | 46° |
| 2026-04-22 20:46 | 57.66943 | 12.29437 | 510 ft | 4 kts | 206° |
| 2026-04-22 20:46 | 57.66928 | 12.29412 | 510 ft | 0 kts | 229° |
| 2026-04-22 20:47 | 57.66926 | 12.29409 | 510 ft | 0 kts | 235° |
| 2026-04-22 20:47 | 57.66909 | 12.29366 | 510 ft | 6 kts | 244° |
| 2026-04-22 20:47 | 57.66907 | 12.29325 | 510 ft | 0 kts | 296° |
| 2026-04-22 20:47 | 57.66918 | 12.29324 | 510 ft | 6 kts | 33° |
| 2026-04-22 20:48 | 57.66960 | 12.29380 | 510 ft | 8 kts | 31° |
| 2026-04-22 20:48 | 57.66981 | 12.29400 | 510 ft | 0 kts | 20° |
| 2026-04-22 20:48 | 57.66979 | 12.29399 | 510 ft | 2 kts | 19° |
| 2026-04-22 20:49 | 57.66980 | 12.29399 | 510 ft | 0 kts | 19° |
| 2026-04-22 20:51 | 57.66981 | 12.29400 | 510 ft | 0 kts | 22° |
| 2026-04-22 20:51 | 57.66984 | 12.29403 | 510 ft | 1 kts | 25° |
| 2026-04-22 20:52 | 57.66996 | 12.29413 | 510 ft | 4 kts | 27° |
| 2026-04-22 20:52 | 57.67023 | 12.29395 | 510 ft | 5 kts | 330° |
| 2026-04-22 20:52 | 57.67094 | 12.29431 | 510 ft | 14 kts | 27° |
| 2026-04-22 20:52 | 57.67177 | 12.29506 | 510 ft | 13 kts | 28° |
| 2026-04-22 20:53 | 57.67216 | 12.29485 | 510 ft | 12 kts | 281° |
| 2026-04-22 20:53 | 57.67280 | 12.29402 | 510 ft | 14 kts | 22° |
| 2026-04-22 20:53 | 57.67377 | 12.29490 | 510 ft | 17 kts | 26° |
| 2026-04-22 20:53 | 57.67487 | 12.29590 | 510 ft | 11 kts | 26° |
| 2026-04-22 20:54 | 57.67564 | 12.29630 | 510 ft | 13 kts | 18° |
| 2026-04-22 20:54 | 57.67655 | 12.29629 | 510 ft | 14 kts | 340° |
| 2026-04-22 20:54 | 57.67703 | 12.29482 | 510 ft | 14 kts | 275° |
| 2026-04-22 20:54 | 57.67701 | 12.29299 | 510 ft | 14 kts | 238° |
| 2026-04-22 20:55 | 57.67612 | 12.29191 | 510 ft | 17 kts | 207° |
| 2026-04-22 20:55 | 57.67575 | 12.29158 | 510 ft | 0 kts | 206° |
| 2026-04-22 20:55 | 57.67572 | 12.29154 | 510 ft | 0 kts | 206° |
| 2026-04-22 20:55 | 57.67499 | 12.29088 | 510 ft | 57 kts | 205° |
| 2026-04-22 20:56 | 57.66760 | 12.28414 | 734 ft | 160 kts | 207° |
| 2026-04-22 20:56 | 57.65535 | 12.27355 | 1545 ft | 227 kts | 205° |
| 2026-04-22 20:56 | 57.63928 | 12.25961 | 2311 ft | 282 kts | 206° |
| 2026-04-22 20:56 | 57.61977 | 12.24155 | 2687 ft | 342 kts | 210° |
| 2026-04-22 20:57 | 57.59561 | 12.22783 | 3201 ft | 378 kts | 193° |
| 2026-04-22 20:57 | 57.57361 | 12.20696 | 5060 ft | 349 kts | 208° |
| 2026-04-22 20:57 | 57.55261 | 12.18366 | 5182 ft | 341 kts | 192° |
| 2026-04-22 20:57 | 57.53005 | 12.18602 | 5880 ft | 315 kts | 166° |
| 2026-04-22 20:58 | 57.51083 | 12.20000 | 6696 ft | 282 kts | 151° |
| 2026-04-22 20:58 | 57.49391 | 12.21901 | 6913 ft | 280 kts | 144° |
| 2026-04-22 20:58 | 57.47813 | 12.23808 | 7588 ft | 259 kts | 144° |
| 2026-04-22 20:58 | 57.46232 | 12.25117 | 8263 ft | 240 kts | 172° |
| 2026-04-22 20:59 | 57.44563 | 12.25620 | 8710 ft | 243 kts | 166° |
| 2026-04-22 20:59 | 57.42987 | 12.26583 | 9274 ft | 243 kts | 162° |
| 2026-04-22 20:59 | 57.41262 | 12.26995 | 9770 ft | 270 kts | 181° |
| 2026-04-22 20:59 | 57.39285 | 12.27030 | 10879 ft | 291 kts | 179° |
| 2026-04-22 21:00 | 57.37259 | 12.27412 | 12276 ft | 304 kts | 172° |
| 2026-04-22 21:00 | 57.35070 | 12.27831 | 13121 ft | 337 kts | 174° |
| 2026-04-22 21:00 | 57.32627 | 12.28627 | 13957 ft | 355 kts | 170° |
| 2026-04-22 21:00 | 57.30143 | 12.29397 | 15269 ft | 366 kts | 167° |
| 2026-04-22 21:01 | 57.27695 | 12.30534 | 16585 ft | 347 kts | 166° |
| 2026-04-22 21:01 | 57.25404 | 12.31027 | 17718 ft | 319 kts | 172° |
| 2026-04-22 21:01 | 57.23260 | 12.31483 | 18433 ft | 309 kts | 171° |
| 2026-04-22 21:01 | 57.21083 | 12.31932 | 18652 ft | 309 kts | 172° |
| 2026-04-22 21:02 | 57.18953 | 12.32376 | 19209 ft | 321 kts | 171° |
| 2026-04-22 21:02 | 57.16558 | 12.33015 | 19263 ft | 369 kts | 169° |
| 2026-04-22 21:02 | 57.13884 | 12.33800 | 19385 ft | 409 kts | 169° |
| 2026-04-22 21:02 | 57.10986 | 12.34622 | 19573 ft | 431 kts | 170° |
| 2026-04-22 21:03 | 57.07965 | 12.35401 | 19515 ft | 444 kts | 170° |
| 2026-04-22 21:03 | 57.04877 | 12.36225 | 19375 ft | 455 kts | 170° |
| 2026-04-22 21:03 | 57.01722 | 12.37107 | 19422 ft | 458 kts | 170° |
| 2026-04-22 21:03 | 56.98565 | 12.37969 | 19258 ft | 465 kts | 171° |
| 2026-04-22 21:04 | 56.95307 | 12.38575 | 19043 ft | 473 kts | 173° |
| 2026-04-22 21:04 | 56.92065 | 12.39231 | 19176 ft | 470 kts | 172° |
| 2026-04-22 21:04 | 56.88820 | 12.39990 | 19280 ft | 468 kts | 171° |
| 2026-04-22 21:04 | 56.85570 | 12.40792 | 19189 ft | 471 kts | 172° |
| 2026-04-22 21:05 | 56.82330 | 12.41514 | 19305 ft | 469 kts | 171° |
| 2026-04-22 21:05 | 56.79139 | 12.42346 | 19342 ft | 469 kts | 171° |
| 2026-04-22 21:05 | 56.75898 | 12.43099 | 19362 ft | 470 kts | 171° |
| 2026-04-22 21:05 | 56.72669 | 12.43936 | 19396 ft | 470 kts | 171° |
| 2026-04-22 21:06 | 56.69409 | 12.44755 | 19130 ft | 477 kts | 171° |
| 2026-04-22 21:06 | 56.66093 | 12.45592 | 18750 ft | 484 kts | 171° |
| 2026-04-22 21:06 | 56.62817 | 12.46451 | 18747 ft | 388 kts | 171° |
| 2026-04-22 21:06 | 56.62628 | 12.46332 | 25174 ft | 207 kts | 341° |
| 2026-04-22 21:07 | 56.62919 | 12.45586 | 19242 ft | 230 kts | 141° |
| 2026-04-22 21:07 | 56.60169 | 12.48253 | 13411 ft | 534 kts | 135° |
| 2026-04-22 21:07 | 56.57434 | 12.51053 | 16849 ft | 412 kts | 182° |
| 2026-04-22 21:07 | 56.54487 | 12.51108 | 17448 ft | 432 kts | 179° |
| 2026-04-22 21:08 | 56.51430 | 12.51044 | 17274 ft | 447 kts | 181° |
| 2026-04-22 21:08 | 56.48264 | 12.50973 | 16689 ft | 465 kts | 180° |
| 2026-04-22 21:08 | 56.44982 | 12.51084 | 16184 ft | 475 kts | 177° |
| 2026-04-22 21:08 | 56.41646 | 12.51677 | 15286 ft | 488 kts | 172° |
| 2026-04-22 21:09 | 56.38255 | 12.52470 | 14404 ft | 494 kts | 173° |
| 2026-04-22 21:09 | 56.34821 | 12.53219 | 13399 ft | 498 kts | 173° |
| 2026-04-22 21:09 | 56.31393 | 12.53993 | 12548 ft | 496 kts | 175° |
| 2026-04-22 21:09 | 56.28096 | 12.54847 | 12342 ft | 477 kts | 175° |
| 2026-04-22 21:10 | 56.24909 | 12.55155 | 12037 ft | 432 kts | 179° |
| 2026-04-22 21:10 | 56.22072 | 12.55256 | 11724 ft | 386 kts | 179° |
| 2026-04-22 21:10 | 56.19492 | 12.55465 | 11295 ft | 356 kts | 177° |
| 2026-04-22 21:10 | 56.17112 | 12.55741 | 11180 ft | 316 kts | 176° |
| 2026-04-22 21:11 | 56.15026 | 12.56047 | 11121 ft | 299 kts | 176° |
| 2026-04-22 21:11 | 56.12980 | 12.56460 | 10970 ft | 293 kts | 174° |
| 2026-04-22 21:11 | 56.10956 | 12.56943 | 10824 ft | 297 kts | 173° |
| 2026-04-22 21:11 | 56.08871 | 12.57234 | 10671 ft | 302 kts | 181° |
| 2026-04-22 21:12 | 56.06828 | 12.56886 | 10896 ft | 287 kts | 197° |
| 2026-04-22 21:12 | 56.04982 | 12.55564 | 11109 ft | 285 kts | 214° |
| 2026-04-22 21:12 | 56.03432 | 12.53380 | 11014 ft | 291 kts | 232° |
| 2026-04-22 21:12 | 56.02012 | 12.50547 | 10472 ft | 322 kts | 233° |
| 2026-04-22 21:13 | 56.00362 | 12.47470 | 9687 ft | 370 kts | 227° |
| 2026-04-22 21:13 | 55.98306 | 12.44523 | 9389 ft | 367 kts | 216° |
| 2026-04-22 21:13 | 55.96251 | 12.43149 | 9573 ft | 283 kts | 190° |
| 2026-04-22 21:13 | 55.94404 | 12.42719 | 8827 ft | 265 kts | 191° |
| 2026-04-22 21:14 | 55.92538 | 12.42942 | 8900 ft | 273 kts | 162° |
| 2026-04-22 21:14 | 55.90832 | 12.44388 | 8898 ft | 273 kts | 141° |
| 2026-04-22 21:14 | 55.89434 | 12.46754 | 8937 ft | 289 kts | 129° |
| 2026-04-22 21:14 | 55.87971 | 12.49554 | 9001 ft | 334 kts | 132° |
| 2026-04-22 21:15 | 55.86251 | 12.52624 | 8975 ft | 363 kts | 131° |
| 2026-04-22 21:15 | 55.84485 | 12.55931 | 8734 ft | 366 kts | 131° |
| 2026-04-22 21:15 | 55.82782 | 12.59149 | 8495 ft | 348 kts | 130° |
| 2026-04-22 21:15 | 55.81152 | 12.62310 | 8276 ft | 363 kts | 129° |
| 2026-04-22 21:16 | 55.79326 | 12.65937 | 8110 ft | 420 kts | 130° |
| 2026-04-22 21:16 | 55.77359 | 12.69656 | 7805 ft | 404 kts | 131° |
| 2026-04-22 21:16 | 55.75529 | 12.73053 | 7560 ft | 346 kts | 130° |
| 2026-04-22 21:16 | 55.74077 | 12.75796 | 7420 ft | 284 kts | 131° |
| 2026-04-22 21:17 | 55.72559 | 12.78165 | 7357 ft | 291 kts | 141° |
| 2026-04-22 21:17 | 55.70892 | 12.80247 | 7249 ft | 305 kts | 143° |
| 2026-04-22 21:17 | 55.69015 | 12.82703 | 6881 ft | 363 kts | 141° |
| 2026-04-22 21:17 | 55.67011 | 12.85484 | 6679 ft | 358 kts | 140° |
| 2026-04-22 21:18 | 55.65098 | 12.88001 | 6429 ft | 328 kts | 143° |
| 2026-04-22 21:18 | 55.63321 | 12.90252 | 6187 ft | 301 kts | 141° |
| 2026-04-22 21:18 | 55.61700 | 12.92458 | 5934 ft | 287 kts | 140° |
| 2026-04-22 21:18 | 55.60154 | 12.94511 | 5761 ft | 269 kts | 141° |
| 2026-04-22 21:19 | 55.58707 | 12.96465 | 5537 ft | 255 kts | 140° |
| 2026-04-22 21:19 | 55.57333 | 12.98364 | 5317 ft | 245 kts | 139° |
| 2026-04-22 21:19 | 55.55990 | 13.00242 | 5166 ft | 249 kts | 140° |
| 2026-04-22 21:19 | 55.54561 | 13.02013 | 5120 ft | 250 kts | 149° |
| 2026-04-22 21:20 | 55.52969 | 13.02986 | 5179 ft | 233 kts | 173° |
| 2026-04-22 21:20 | 55.51381 | 13.03084 | 5088 ft | 224 kts | 189° |
| 2026-04-22 21:20 | 55.49929 | 13.02331 | 5010 ft | 215 kts | 213° |
| 2026-04-22 21:20 | 55.48845 | 13.00670 | 4921 ft | 202 kts | 244° |
| 2026-04-22 21:21 | 55.48615 | 12.98411 | 4680 ft | 186 kts | 293° |
| 2026-04-22 21:21 | 55.49406 | 12.96716 | 4464 ft | 184 kts | 324° |
| 2026-04-22 21:21 | 55.50419 | 12.95170 | 4165 ft | 201 kts | 313° |
| 2026-04-22 21:21 | 55.51127 | 12.92981 | 3846 ft | 209 kts | 302° |
| 2026-04-22 21:22 | 55.51853 | 12.90835 | 3756 ft | 192 kts | 305° |
| 2026-04-22 21:22 | 55.52529 | 12.88940 | 3655 ft | 187 kts | 306° |
| 2026-04-22 21:22 | 55.53308 | 12.86991 | 3350 ft | 198 kts | 308° |
| 2026-04-22 21:22 | 55.54171 | 12.85055 | 2984 ft | 202 kts | 312° |
| 2026-04-22 21:23 | 55.55061 | 12.83220 | 2735 ft | 185 kts | 312° |
| 2026-04-22 21:23 | 55.55832 | 12.81537 | 2368 ft | 170 kts | 308° |
| 2026-04-22 21:23 | 55.56457 | 12.79799 | 1994 ft | 168 kts | 305° |
| 2026-04-22 21:23 | 55.57106 | 12.78039 | 1553 ft | 172 kts | 307° |
| 2026-04-22 21:24 | 55.57806 | 12.76365 | 1282 ft | 164 kts | 309° |
| 2026-04-22 21:24 | 55.58400 | 12.74734 | 1100 ft | 153 kts | 304° |
| 2026-04-22 21:24 | 55.58973 | 12.73199 | 898 ft | 148 kts | 305° |
| 2026-04-22 21:24 | 55.59541 | 12.71678 | 699 ft | 147 kts | 304° |
| 2026-04-22 21:25 | 55.60096 | 12.70182 | 536 ft | 145 kts | 304° |
| 2026-04-22 21:25 | 55.60612 | 12.68777 | 356 ft | 125 kts | 303° |
| 2026-04-22 21:25 | 55.61075 | 12.67534 | 181 ft | 119 kts | 303° |
| 2026-04-22 21:25 | 55.61527 | 12.66317 | 27 ft | 117 kts | 304° |
| 2026-04-22 21:26 | 55.61915 | 12.65264 | 10 ft | 75 kts | 303° |
| 2026-04-22 21:26 | 55.62117 | 12.64719 | 12 ft | 40 kts | 305° |
| 2026-04-22 21:26 | 55.62246 | 12.64449 | 10 ft | 22 kts | 335° |
| 2026-04-22 21:26 | 55.62367 | 12.64439 | 11 ft | 17 kts | 17° |
| 2026-04-22 21:27 | 55.62457 | 12.64483 | 11 ft | 12 kts | 14° |
| 2026-04-22 21:27 | 55.62525 | 12.64576 | 11 ft | 12 kts | 23° |
| 2026-04-22 21:27 | 55.62579 | 12.64564 | 11 ft | 4 kts | 344° |
| 2026-04-22 21:27 | 55.62582 | 12.64563 | 11 ft | 0 kts | 342° |